createdAt,value
2022-12-07T00:01:43.997Z,7.70
2022-12-07T00:04:15.988Z,7.70
2022-12-07T00:06:45.423Z,7.80
2022-12-07T00:09:18.310Z,7.80
2022-12-07T00:11:48.904Z,7.80
2022-12-07T00:14:19.847Z,7.70
2022-12-07T00:16:50.888Z,7.70
2022-12-07T00:19:18.606Z,7.70
2022-12-07T00:21:45.897Z,7.70
2022-12-07T00:24:13.781Z,7.50
2022-12-07T00:26:42.939Z,7.50
2022-12-07T00:29:24.249Z,7.50
2022-12-07T00:31:51.449Z,7.50
2022-12-07T00:34:21.021Z,7.50
2022-12-07T00:36:49.113Z,7.40
2022-12-07T00:39:16.864Z,7.30
2022-12-07T00:41:48.824Z,7.40
2022-12-07T00:44:18.175Z,7.40
2022-12-07T00:46:46.610Z,7.30
2022-12-07T00:49:18.858Z,7.50
2022-12-07T00:51:46.078Z,7.50
2022-12-07T00:54:16.176Z,7.60
2022-12-07T00:56:45.596Z,7.70
2022-12-07T00:59:17.810Z,7.70
2022-12-07T01:01:45.584Z,7.80
2022-12-07T01:04:13.350Z,7.80
2022-12-07T01:06:40.590Z,7.70
2022-12-07T01:09:12.133Z,7.60
2022-12-07T01:11:41.508Z,7.60
2022-12-07T01:14:12.306Z,7.60
2022-12-07T01:16:40.298Z,7.50
2022-12-07T01:19:07.513Z,7.50
2022-12-07T01:21:38.365Z,7.50
2022-12-07T01:24:09.028Z,7.60
2022-12-07T01:26:39.046Z,7.70
2022-12-07T01:29:09.301Z,7.80
2022-12-07T01:31:37.002Z,7.80
2022-12-07T01:34:04.422Z,7.80
2022-12-07T01:36:37.327Z,7.90
2022-12-07T01:39:08.620Z,7.90
2022-12-07T01:41:40.262Z,7.90
2022-12-07T01:44:24.210Z,7.90
2022-12-07T01:47:02.913Z,7.90
2022-12-07T01:49:43.269Z,7.90
2022-12-07T01:52:31.137Z,7.90
2022-12-07T01:55:04.893Z,7.80
2022-12-07T01:57:34.303Z,7.80
2022-12-07T02:00:05.281Z,7.80
2022-12-07T02:02:38.671Z,7.70
2022-12-07T02:05:07.236Z,7.70
2022-12-07T02:07:38.608Z,7.50
2022-12-07T02:10:27.724Z,7.40
2022-12-07T02:12:58.583Z,7.20
2022-12-07T02:15:42.590Z,7.10
2022-12-07T02:18:15.809Z,7.10
2022-12-07T02:21:02.194Z,7.20
2022-12-07T02:23:44.230Z,7.20
2022-12-07T02:26:26.220Z,7.20
2022-12-07T02:29:02.368Z,7.10
2022-12-07T02:31:32.580Z,7.20
2022-12-07T02:34:20.119Z,7.20
2022-12-07T02:36:54.967Z,7.10
2022-12-07T02:39:34.609Z,7.20
2022-12-07T02:42:15.601Z,7.20
2022-12-07T02:44:43.774Z,7.30
2022-12-07T02:47:15.588Z,7.30
2022-12-07T02:49:43.610Z,7.40
2022-12-07T02:52:10.968Z,7.50
2022-12-07T02:54:38.362Z,7.50
2022-12-07T02:57:30.613Z,7.50
2022-12-07T03:00:13.648Z,7.50
2022-12-07T03:02:46.022Z,7.30
2022-12-07T03:05:19.130Z,7.30
2022-12-07T03:07:58.653Z,7.40
2022-12-07T03:11:01.984Z,7.50
2022-12-07T03:13:41.115Z,7.50
2022-12-07T03:16:31.612Z,7.50
2022-12-07T03:19:08.902Z,7.60
2022-12-07T03:21:51.014Z,7.60
2022-12-07T03:24:27.634Z,7.60
2022-12-07T03:27:08.542Z,7.50
2022-12-07T03:29:39.657Z,7.40
2022-12-07T03:32:29.120Z,7.40
2022-12-07T03:35:09.335Z,7.40
2022-12-07T03:37:48.796Z,7.30
2022-12-07T03:40:29.506Z,7.40
2022-12-07T03:43:00.751Z,7.40
2022-12-07T03:45:41.016Z,7.50
2022-12-07T03:48:53.416Z,7.50
2022-12-07T03:51:27.631Z,7.50
2022-12-07T03:54:03.841Z,7.60
2022-12-07T03:56:36.159Z,7.60
2022-12-07T03:59:03.605Z,7.60
2022-12-07T04:01:33.132Z,7.50
2022-12-07T04:04:00.465Z,7.50
2022-12-07T04:06:29.783Z,7.50
2022-12-07T04:08:59.800Z,7.50
2022-12-07T04:11:31.743Z,7.40
2022-12-07T04:14:17.272Z,7.40
2022-12-07T04:16:45.016Z,7.30
2022-12-07T04:19:15.037Z,7.30
2022-12-07T04:21:42.581Z,7.20
2022-12-07T04:24:13.083Z,7.10
2022-12-07T04:26:40.913Z,7.00
2022-12-07T04:29:08.874Z,6.90
2022-12-07T04:31:39.249Z,6.90
2022-12-07T04:34:10.705Z,6.90
2022-12-07T04:36:38.632Z,6.80
2022-12-07T04:39:07.506Z,6.80
2022-12-07T04:41:35.084Z,6.80
2022-12-07T04:44:04.600Z,6.80
2022-12-07T04:46:32.888Z,6.80
2022-12-07T04:49:00.612Z,6.80
2022-12-07T04:51:29.967Z,6.90
2022-12-07T04:54:02.329Z,6.90
2022-12-07T04:56:29.612Z,6.80
2022-12-07T04:58:58.975Z,6.70
2022-12-07T05:01:26.243Z,6.70
2022-12-07T05:03:53.995Z,6.70
2022-12-07T05:06:21.781Z,6.70
2022-12-07T05:08:49.483Z,6.70
2022-12-07T05:11:35.188Z,6.70
2022-12-07T05:14:04.597Z,6.70
2022-12-07T05:16:36.941Z,6.70
2022-12-07T05:19:04.761Z,6.60
2022-12-07T05:21:34.141Z,6.70
2022-12-07T05:24:04.597Z,6.80
2022-12-07T05:26:35.323Z,6.90
2022-12-07T05:29:07.580Z,7.00
2022-12-07T05:31:37.240Z,6.90
2022-12-07T05:34:04.499Z,6.90
2022-12-07T05:36:34.437Z,6.90
2022-12-07T05:39:06.230Z,6.80
2022-12-07T05:41:51.835Z,6.90
2022-12-07T05:44:19.313Z,6.90
2022-12-07T05:46:46.561Z,6.90
2022-12-07T05:49:14.304Z,6.90
2022-12-07T05:51:41.522Z,6.90
2022-12-07T05:54:11.223Z,6.90
2022-12-07T05:56:38.961Z,6.90
2022-12-07T05:59:25.237Z,6.90
2022-12-07T06:02:00.868Z,6.80
2022-12-07T06:04:31.404Z,6.90
2022-12-07T06:06:59.355Z,7.00
2022-12-07T06:09:28.426Z,7.00
2022-12-07T06:12:15.693Z,7.00
2022-12-07T06:14:45.330Z,7.10
2022-12-07T06:17:14.074Z,7.10
2022-12-07T06:19:44.348Z,7.20
2022-12-07T06:22:12.711Z,7.20
2022-12-07T06:24:40.881Z,7.20
2022-12-07T06:27:08.761Z,7.20
2022-12-07T06:29:36.523Z,7.10
2022-12-07T06:32:06.309Z,7.00
2022-12-07T06:34:35.854Z,7.10
2022-12-07T06:37:05.750Z,7.20
2022-12-07T06:39:33.551Z,7.20
2022-12-07T06:42:01.312Z,7.20
2022-12-07T06:44:28.553Z,7.30
2022-12-07T06:47:24.963Z,7.20
2022-12-07T06:49:46.665Z,7.20
2022-12-07T06:52:13.928Z,7.20
2022-12-07T06:54:43.839Z,7.20
2022-12-07T06:57:11.111Z,7.20
2022-12-07T06:59:40.503Z,7.20
2022-12-07T07:02:10.258Z,7.20
2022-12-07T07:04:40.948Z,7.30
2022-12-07T07:07:08.158Z,7.30
2022-12-07T07:09:35.448Z,7.10
2022-12-07T07:12:02.666Z,7.10
2022-12-07T07:14:30.345Z,7.20
2022-12-07T07:16:57.666Z,7.10
2022-12-07T07:19:24.950Z,7.20
2022-12-07T07:21:56.860Z,7.20
2022-12-07T07:24:24.072Z,7.30
2022-12-07T07:26:51.234Z,7.10
2022-12-07T07:29:21.001Z,6.90
2022-12-07T07:31:50.672Z,7.00
2022-12-07T07:34:17.928Z,6.80
2022-12-07T07:36:47.700Z,7.00
2022-12-07T07:39:14.992Z,7.00
2022-12-07T07:41:44.968Z,6.90
2022-12-07T07:44:12.731Z,6.90
2022-12-07T07:46:40.200Z,6.80
2022-12-07T07:49:07.448Z,6.90
2022-12-07T07:51:35.204Z,6.90
2022-12-07T07:54:02.614Z,6.90
2022-12-07T07:56:29.818Z,6.90
2022-12-07T07:58:57.502Z,6.90
2022-12-07T08:01:24.734Z,6.90
2022-12-07T08:03:52.581Z,6.90
2022-12-07T08:06:19.837Z,6.90
2022-12-07T08:08:49.964Z,6.80
2022-12-07T08:11:17.193Z,6.80
2022-12-07T08:13:50.456Z,6.80
2022-12-07T08:16:20.865Z,6.70
2022-12-07T08:18:48.578Z,6.70
2022-12-07T08:21:18.735Z,6.70
2022-12-07T08:23:48.482Z,6.80
2022-12-07T08:26:17.670Z,6.90
2022-12-07T08:28:47.830Z,7.00
2022-12-07T08:31:19.197Z,7.10
2022-12-07T08:33:49.709Z,7.20
2022-12-07T08:36:20.160Z,7.20
2022-12-07T08:39:22.449Z,7.30
2022-12-07T08:41:35.402Z,7.40
2022-12-07T08:44:05.133Z,7.50
2022-12-07T08:46:40.888Z,7.60
2022-12-07T08:49:15.792Z,7.70
2022-12-07T08:51:45.931Z,7.90
2022-12-07T08:54:17.259Z,8.10
2022-12-07T08:56:47.814Z,8.20
2022-12-07T08:59:18.923Z,8.30
2022-12-07T09:01:46.775Z,8.20
2022-12-07T09:04:13.970Z,8.10
2022-12-07T09:06:42.413Z,8.00
2022-12-07T09:09:10.656Z,7.80
2022-12-07T09:11:38.014Z,7.80
2022-12-07T09:14:05.766Z,8.00
2022-12-07T09:16:35.671Z,7.90
2022-12-07T09:19:03.169Z,8.00
2022-12-07T09:21:32.719Z,7.90
2022-12-07T09:24:02.749Z,7.80
2022-12-07T09:26:36.120Z,7.70
2022-12-07T09:29:06.349Z,7.60
2022-12-07T09:31:39.734Z,7.60
2022-12-07T09:34:08.354Z,7.80
2022-12-07T09:36:38.168Z,8.30
2022-12-07T09:39:08.480Z,9.10
2022-12-07T09:41:42.851Z,9.30
2022-12-07T09:44:21.043Z,9.40
2022-12-07T09:46:49.171Z,9.50
2022-12-07T09:49:23.647Z,9.50
2022-12-07T09:52:14.405Z,9.50
2022-12-07T09:54:47.705Z,9.60
2022-12-07T09:57:16.517Z,9.50
2022-12-07T09:59:44.110Z,9.40
2022-12-07T10:02:34.739Z,9.50
2022-12-07T10:05:04.678Z,9.50
2022-12-07T10:07:36.696Z,9.40
2022-12-07T10:10:14.613Z,9.40
2022-12-07T10:12:59.716Z,9.50
2022-12-07T10:15:52.786Z,9.70
2022-12-07T10:18:20.856Z,9.80
2022-12-07T10:20:49.914Z,10.00
2022-12-07T10:23:19.787Z,10.20
2022-12-07T10:25:49.138Z,10.50
2022-12-07T10:28:19.466Z,10.90
2022-12-07T10:30:50.793Z,11.40
2022-12-07T10:33:33.413Z,11.50
2022-12-07T10:36:10.099Z,11.50
2022-12-07T10:38:50.032Z,11.80
2022-12-07T10:41:17.908Z,11.70
2022-12-07T10:43:56.305Z,11.60
2022-12-07T10:46:43.779Z,11.30
2022-12-07T10:49:47.512Z,11.20
2022-12-07T10:52:52.642Z,10.80
2022-12-07T10:55:44.969Z,10.80
2022-12-07T10:58:31.015Z,10.60
2022-12-07T11:01:06.555Z,10.40
2022-12-07T11:03:50.642Z,10.30
2022-12-07T11:06:23.901Z,10.00
2022-12-07T11:09:09.739Z,9.80
2022-12-07T11:12:00.449Z,9.60
2022-12-07T11:14:32.359Z,9.50
2022-12-07T11:17:27.670Z,9.40
2022-12-07T11:20:14.224Z,9.50
2022-12-07T11:22:52.821Z,9.80
2022-12-07T11:25:41.195Z,10.00
2022-12-07T11:28:23.394Z,10.20
2022-12-07T11:31:02.883Z,10.80
2022-12-07T11:33:59.637Z,12.00
2022-12-07T11:36:36.481Z,12.40
2022-12-07T11:39:23.277Z,12.90
2022-12-07T11:42:15.275Z,12.90
2022-12-07T11:45:01.252Z,12.80
2022-12-07T11:47:43.635Z,13.00
2022-12-07T11:50:31.677Z,14.60
2022-12-07T11:53:18.904Z,15.80
2022-12-07T11:56:06.389Z,17.30
2022-12-07T11:58:49.430Z,16.60
2022-12-07T12:01:34.428Z,15.90
2022-12-07T12:04:20.007Z,15.80
2022-12-07T12:06:47.980Z,15.40
2022-12-07T12:09:42.164Z,15.10
2022-12-07T12:16:02.317Z,14.40
2022-12-07T12:18:59.111Z,13.80
2022-12-07T12:21:31.299Z,13.20
2022-12-07T12:24:06.979Z,13.80
2022-12-07T12:26:40.044Z,14.60
2022-12-07T12:29:21.410Z,14.40
2022-12-07T12:32:31.723Z,14.00
2022-12-07T12:35:04.060Z,13.50
2022-12-07T12:37:44.210Z,12.90
2022-12-07T12:40:17.212Z,12.60
2022-12-07T12:42:56.531Z,13.20
2022-12-07T12:45:32.613Z,14.40
2022-12-07T12:48:30.153Z,15.70
2022-12-07T12:51:36.340Z,15.30
2022-12-07T12:54:19.875Z,15.40
2022-12-07T12:57:16.954Z,15.70
2022-12-07T12:59:56.778Z,16.10
2022-12-07T13:02:31.715Z,16.40
2022-12-07T13:05:23.809Z,15.70
2022-12-07T13:07:56.322Z,14.90
2022-12-07T13:10:30.088Z,14.80
2022-12-07T13:13:13.035Z,14.50
2022-12-07T13:15:48.848Z,13.70
2022-12-07T13:18:36.128Z,13.20
2022-12-07T13:21:09.374Z,12.70
2022-12-07T13:23:55.857Z,12.00
2022-12-07T13:26:41.610Z,11.90
2022-12-07T13:29:16.731Z,11.70
2022-12-07T13:31:55.672Z,11.40
2022-12-07T13:34:39.421Z,11.20
2022-12-07T13:37:08.997Z,10.90
2022-12-07T13:40:05.820Z,10.80
2022-12-07T13:42:35.866Z,10.70
2022-12-07T13:45:45.580Z,10.50
2022-12-07T13:48:38.207Z,10.30
2022-12-07T13:51:20.657Z,10.20
2022-12-07T13:53:49.636Z,10.10
2022-12-07T13:56:22.005Z,10.20
2022-12-07T13:58:49.345Z,10.20
2022-12-07T14:01:16.753Z,10.20
2022-12-07T14:03:44.651Z,10.30
2022-12-07T14:06:23.407Z,10.20
2022-12-07T14:08:54.558Z,10.00
2022-12-07T14:11:34.292Z,9.90
2022-12-07T14:14:06.488Z,9.70
2022-12-07T14:16:37.480Z,9.60
2022-12-07T14:19:26.306Z,9.40
2022-12-07T14:22:19.615Z,9.20
2022-12-07T14:24:47.003Z,9.10
2022-12-07T14:27:31.436Z,9.00
2022-12-07T14:30:02.256Z,8.80
2022-12-07T14:32:31.229Z,8.60
2022-12-07T14:35:21.678Z,8.50
2022-12-07T14:37:54.616Z,8.30
2022-12-07T14:40:28.401Z,8.20
2022-12-07T14:43:02.886Z,8.30
2022-12-07T14:45:31.099Z,8.30
2022-12-07T14:53:43.022Z,8.50
2022-12-07T14:56:10.637Z,8.60
2022-12-07T14:58:38.405Z,8.60
2022-12-07T15:01:06.254Z,8.50
2022-12-07T15:03:35.728Z,8.50
2022-12-07T15:06:05.872Z,8.40
2022-12-07T15:08:35.808Z,8.40
2022-12-07T15:11:03.728Z,8.40
2022-12-07T15:13:49.657Z,8.50
2022-12-07T15:16:21.416Z,8.40
2022-12-07T15:19:19.306Z,8.30
2022-12-07T15:21:38.852Z,8.20
2022-12-07T15:24:07.498Z,8.10
2022-12-07T15:26:37.766Z,8.00
2022-12-07T15:29:05.651Z,7.80
2022-12-07T15:31:54.493Z,7.80
2022-12-07T15:34:23.474Z,7.70
2022-12-07T15:36:50.796Z,7.80
2022-12-07T15:39:20.578Z,7.70
2022-12-07T15:41:49.692Z,7.80
2022-12-07T15:44:35.672Z,7.90
2022-12-07T15:47:03.528Z,7.90
2022-12-07T15:49:31.162Z,7.90
2022-12-07T15:51:59.052Z,8.00
2022-12-07T15:54:33.159Z,8.00
2022-12-07T15:57:01.950Z,8.00
2022-12-07T15:59:32.225Z,8.10
2022-12-07T16:02:02.573Z,8.10
2022-12-07T16:04:30.602Z,8.10
2022-12-07T16:07:02.967Z,8.20
2022-12-07T16:09:30.806Z,8.20
2022-12-07T16:11:58.738Z,8.10
2022-12-07T16:14:28.619Z,8.10
2022-12-07T16:16:58.669Z,8.00
2022-12-07T16:19:28.984Z,8.00
2022-12-07T16:21:59.300Z,8.00
2022-12-07T16:24:27.445Z,8.00
2022-12-07T16:26:55.752Z,8.00
2022-12-07T16:29:28.430Z,7.90
2022-12-07T16:31:55.843Z,8.00
2022-12-07T16:34:23.141Z,8.00
2022-12-07T16:37:06.394Z,8.00
2022-12-07T16:39:37.354Z,8.00
2022-12-07T16:42:05.271Z,8.00
2022-12-07T16:44:34.944Z,8.00
2022-12-07T16:47:04.464Z,7.90
2022-12-07T16:49:32.317Z,8.00
2022-12-07T16:54:53.450Z,7.90
2022-12-07T16:57:23.703Z,7.90
2022-12-07T16:59:54.724Z,8.00
2022-12-07T17:02:22.547Z,8.00
2022-12-07T17:04:50.423Z,8.10
2022-12-07T17:07:17.894Z,8.00
2022-12-07T17:09:47.261Z,7.90
2022-12-07T17:12:16.766Z,7.90
2022-12-07T17:15:03.034Z,7.80
2022-12-07T17:17:30.561Z,7.70
2022-12-07T17:19:57.857Z,7.70
2022-12-07T17:22:25.525Z,7.70
2022-12-07T17:24:58.088Z,7.80
2022-12-07T17:27:27.931Z,7.80
2022-12-07T17:29:57.415Z,7.80
2022-12-07T17:32:27.680Z,7.70
2022-12-07T17:35:00.912Z,7.70
2022-12-07T17:37:28.989Z,7.80
2022-12-07T17:39:58.204Z,7.80
2022-12-07T17:42:37.382Z,7.80
2022-12-07T17:45:06.454Z,7.80
2022-12-07T17:47:37.922Z,7.80
2022-12-07T17:50:10.088Z,7.80
2022-12-07T17:52:59.511Z,7.90
2022-12-07T17:55:27.330Z,7.90
2022-12-07T17:57:57.471Z,7.90
2022-12-07T18:00:27.528Z,8.00
2022-12-07T18:02:59.934Z,7.90
2022-12-07T18:05:27.166Z,8.00
2022-12-07T18:07:57.157Z,8.00
2022-12-07T18:10:26.595Z,8.00
2022-12-07T18:13:13.838Z,8.10
2022-12-07T18:15:41.381Z,8.10
2022-12-07T18:18:14.013Z,7.90
2022-12-07T18:20:41.594Z,7.90
2022-12-07T18:23:08.898Z,7.90
2022-12-07T18:25:38.288Z,7.90
2022-12-07T18:28:05.984Z,7.90
2022-12-07T18:31:13.271Z,7.90
2022-12-07T18:33:25.972Z,7.90
2022-12-07T18:35:53.198Z,7.90
2022-12-07T18:38:20.396Z,7.90
2022-12-07T18:40:48.275Z,8.00
2022-12-07T18:43:15.708Z,8.00
2022-12-07T18:45:45.164Z,8.00
2022-12-07T18:48:15.821Z,7.80
2022-12-07T18:50:46.832Z,7.80
2022-12-07T18:53:14.291Z,7.70
2022-12-07T18:55:45.265Z,7.70
2022-12-07T18:58:12.926Z,7.70
2022-12-07T19:00:40.160Z,7.70
2022-12-07T19:03:07.860Z,7.60
2022-12-07T19:05:36.256Z,7.60
2022-12-07T19:08:06.206Z,7.60
2022-12-07T19:10:33.934Z,7.60
2022-12-07T19:13:02.415Z,7.60
2022-12-07T19:15:32.624Z,7.60
2022-12-07T19:18:02.027Z,7.60
2022-12-07T19:20:29.266Z,7.60
2022-12-07T19:22:56.490Z,7.50
2022-12-07T19:25:24.308Z,7.50
2022-12-07T19:27:51.542Z,7.50
2022-12-07T19:30:19.898Z,7.60
2022-12-07T19:32:47.167Z,7.50
2022-12-07T19:35:14.406Z,7.50
2022-12-07T19:37:42.090Z,7.40
2022-12-07T19:40:12.256Z,7.40
2022-12-07T19:42:39.555Z,7.30
2022-12-07T19:45:07.319Z,7.20
2022-12-07T19:47:39.187Z,7.20
2022-12-07T19:50:07.187Z,7.20
2022-12-07T19:52:37.162Z,7.30
2022-12-07T19:55:06.999Z,7.30
2022-12-07T19:57:34.799Z,7.30
2022-12-07T20:00:05.274Z,7.40
2022-12-07T20:02:32.603Z,7.50
2022-12-07T20:05:06.563Z,7.50
2022-12-07T20:07:39.119Z,7.50
2022-12-07T20:10:07.755Z,7.50
2022-12-07T20:12:53.446Z,7.60
2022-12-07T20:15:21.113Z,7.60
2022-12-07T20:17:50.971Z,7.50
2022-12-07T20:20:18.315Z,7.50
2022-12-07T20:22:45.859Z,7.40
2022-12-07T20:25:13.107Z,7.40
2022-12-07T20:27:43.206Z,7.40
2022-12-07T20:30:12.970Z,7.40
2022-12-07T20:32:40.221Z,7.40
2022-12-07T20:35:08.271Z,7.40
2022-12-07T20:37:38.194Z,7.40
2022-12-07T20:40:07.010Z,7.40
2022-12-07T20:42:36.951Z,7.40
2022-12-07T20:45:11.000Z,7.30
2022-12-07T20:47:38.905Z,7.30
2022-12-07T20:50:09.732Z,7.10
2022-12-07T20:52:37.049Z,7.10
2022-12-07T20:55:04.750Z,7.00
2022-12-07T20:57:32.640Z,7.10
2022-12-07T21:00:02.212Z,7.10
2022-12-07T21:02:32.094Z,7.10
2022-12-07T21:04:59.433Z,7.20
2022-12-07T21:07:27.724Z,7.20
2022-12-07T21:09:54.918Z,7.20
2022-12-07T21:12:22.190Z,7.10
2022-12-07T21:14:51.695Z,7.10
2022-12-07T21:17:18.939Z,7.10
2022-12-07T21:19:51.167Z,7.10
2022-12-07T21:22:21.185Z,7.10
2022-12-07T21:24:48.897Z,7.10
2022-12-07T21:27:18.267Z,7.10
2022-12-07T21:29:53.923Z,7.10
2022-12-07T21:32:24.113Z,7.00
2022-12-07T21:34:54.318Z,7.10
2022-12-07T21:37:21.536Z,7.10
2022-12-07T21:39:48.828Z,7.10
2022-12-07T21:42:16.524Z,7.20
2022-12-07T21:44:44.507Z,7.30
2022-12-07T21:47:11.744Z,7.20
2022-12-07T21:49:41.125Z,7.20
2022-12-07T21:52:08.992Z,7.20
2022-12-07T21:54:36.632Z,7.20
2022-12-07T21:57:04.395Z,7.20
2022-12-07T21:59:31.823Z,7.20
2022-12-07T22:02:01.842Z,7.10
2022-12-07T22:04:30.226Z,7.10
2022-12-07T22:06:57.928Z,7.00
2022-12-07T22:09:29.980Z,7.00
2022-12-07T22:11:57.731Z,6.90
2022-12-07T22:14:43.715Z,6.80
2022-12-07T22:17:13.523Z,6.80
2022-12-07T22:19:40.705Z,6.70
2022-12-07T22:22:09.117Z,6.70
2022-12-07T22:24:36.445Z,6.60
2022-12-07T22:27:05.862Z,6.50
2022-12-07T22:29:33.090Z,6.40
2022-12-07T22:32:09.183Z,6.40
2022-12-07T22:34:45.981Z,6.40
2022-12-07T22:37:13.230Z,6.40
2022-12-07T22:39:42.827Z,6.40
2022-12-07T22:42:10.029Z,6.40
2022-12-07T22:44:37.292Z,6.50
2022-12-07T22:47:09.844Z,6.50
2022-12-07T22:49:39.496Z,6.50
2022-12-07T22:52:08.831Z,6.60
2022-12-07T22:54:41.854Z,6.70
2022-12-07T22:57:11.769Z,6.60
2022-12-07T22:59:44.475Z,6.60
2022-12-07T23:02:13.877Z,6.70
2022-12-07T23:04:41.671Z,6.70
2022-12-07T23:07:08.982Z,6.70
2022-12-07T23:09:36.247Z,6.80
2022-12-07T23:12:23.614Z,6.80
2022-12-07T23:14:53.932Z,6.80
2022-12-07T23:17:24.117Z,6.90
2022-12-07T23:19:55.734Z,7.00
2022-12-07T23:22:26.214Z,7.00
2022-12-07T23:24:53.668Z,7.10
2022-12-07T23:27:21.188Z,7.10
2022-12-07T23:29:48.389Z,7.20
2022-12-07T23:32:15.620Z,7.10
2022-12-07T23:34:44.420Z,7.00
2022-12-07T23:37:11.718Z,7.00
2022-12-07T23:39:39.417Z,7.00
2022-12-07T23:42:09.231Z,7.00
2022-12-07T23:44:40.108Z,7.00
2022-12-07T23:47:09.962Z,7.00
2022-12-07T23:49:39.747Z,6.90
2022-12-07T23:52:09.987Z,7.00
2022-12-07T23:54:37.217Z,7.00
2022-12-07T23:57:04.432Z,7.10
2022-12-07T23:59:34.143Z,7.10
